Time;durP1;ratioP1;P1;durP2;ratioP2;P2;SDS_P1;SDS_P2;PMS_P1;PMS_P2;Temp;Humidity;BMP_temperature;BMP_pressure;BME280_temperature;BME280_humidity;BME280_pressure;Samples;Min_cycle;Max_cycle;Signal;HPM_P1;HPM_P2
2021/12/30 00:00:22;;;;;;;28.55;12.68;;;5.10;99.90;;;;;;5065097;28;20376;-53
2021/12/30 00:02:47;;;;;;;26.85;12.38;;;5.20;99.90;;;;;;5047406;28;20024;-54
2021/12/30 00:05:14;;;;;;;22.20;12.23;;;5.20;99.90;;;;;;5067371;28;20032;-54
2021/12/30 00:07:40;;;;;;;21.50;11.90;;;5.30;99.90;;;;;;5064305;28;20028;-53
2021/12/30 00:10:06;;;;;;;23.48;12.13;;;5.30;99.90;;;;;;5064014;28;20052;-55
2021/12/30 00:12:32;;;;;;;18.80;10.57;;;5.30;99.90;;;;;;5064869;28;20118;-55
2021/12/30 00:14:59;;;;;;;21.63;11.90;;;5.30;99.90;;;;;;5065225;28;20026;-53
2021/12/30 00:17:25;;;;;;;21.48;11.43;;;5.30;99.90;;;;;;5063704;28;20036;-54
2021/12/30 00:19:50;;;;;;;18.73;11.27;;;5.40;99.90;;;;;;5061707;28;20056;-57
2021/12/30 00:22:16;;;;;;;20.27;10.13;;;5.40;99.90;;;;;;5046689;28;20119;-56
2021/12/30 00:24:42;;;;;;;20.90;11.70;;;5.40;99.90;;;;;;5062564;28;20089;-54
2021/12/30 00:27:07;;;;;;;18.33;11.43;;;5.40;99.90;;;;;;5065453;28;20048;-53
2021/12/30 00:29:33;;;;;;;23.42;11.15;;;5.50;99.90;;;;;;5064070;28;20040;-52
2021/12/30 00:31:59;;;;;;;21.17;11.52;;;5.50;99.90;;;;;;5065007;28;20028;-55
2021/12/30 00:34:25;;;;;;;23.65;11.43;;;5.50;99.90;;;;;;5065056;28;20461;-53
2021/12/30 00:36:50;;;;;;;16.98;12.00;;;5.50;99.90;;;;;;5065630;28;20028;-54
2021/12/30 00:39:16;;;;;;;20.25;11.43;;;5.60;99.90;;;;;;5064413;28;20116;-54
2021/12/30 00:41:42;;;;;;;22.80;11.90;;;5.60;99.90;;;;;;5066070;28;20063;-53
2021/12/30 00:44:07;;;;;;;24.75;12.32;;;5.60;99.90;;;;;;5065307;28;20032;-52
2021/12/30 00:46:33;;;;;;;26.08;12.55;;;5.60;99.90;;;;;;5066182;28;20029;-52
2021/12/30 00:48:58;;;;;;;28.48;13.65;;;5.70;99.90;;;;;;5063802;28;20035;-53
2021/12/30 00:51:24;;;;;;;28.15;12.88;;;5.70;99.90;;;;;;5063707;28;20079;-57
2021/12/30 00:53:50;;;;;;;32.10;15.13;;;5.80;99.90;;;;;;5065697;28;20193;-53
2021/12/30 00:56:15;;;;;;;26.48;14.65;;;5.80;99.90;;;;;;5063346;28;20437;-52
2021/12/30 00:58:41;;;;;;;36.75;15.60;;;5.90;99.90;;;;;;5064123;28;20024;-53
2021/12/30 01:01:06;;;;;;;33.90;14.88;;;5.90;99.90;;;;;;5065454;28;20032;-56
2021/12/30 01:03:34;;;;;;;31.98;15.98;;;6.00;99.90;;;;;;5063565;28;20056;-53
2021/12/30 01:06:00;;;;;;;38.72;16.15;;;6.00;99.90;;;;;;5065631;28;20100;-53
2021/12/30 01:08:26;;;;;;;40.83;18.08;;;6.10;99.90;;;;;;5062824;28;20046;-54
2021/12/30 01:10:51;;;;;;;41.47;18.40;;;6.20;99.90;;;;;;5065207;28;20041;-53
2021/12/30 01:13:23;;;;;;;49.67;17.35;;;6.30;99.90;;;;;;5063796;28;20037;-55
2021/12/30 01:18:30;;;;;;;44.70;18.70;;;6.30;99.90;;;;;;5062508;28;20517;-54
2021/12/30 01:20:57;;;;;;;57.03;19.67;;;6.30;99.90;;;;;;5065189;28;20457;-53
2021/12/30 01:23:24;;;;;;;48.78;19.77;;;6.40;99.90;;;;;;5057655;28;20039;-54
2021/12/30 01:25:49;;;;;;;60.42;20.55;;;6.40;99.90;;;;;;5063243;28;20034;-53
2021/12/30 01:28:15;;;;;;;41.53;20.80;;;6.40;99.90;;;;;;5036439;28;20137;-54
2021/12/30 01:30:41;;;;;;;47.55;20.08;;;6.50;99.90;;;;;;5036889;28;20037;-53
2021/12/30 01:33:07;;;;;;;43.25;20.55;;;6.50;99.90;;;;;;5036971;28;20290;-55
2021/12/30 01:35:32;;;;;;;47.13;21.20;;;6.50;99.90;;;;;;5036748;28;20120;-56
2021/12/30 01:38:00;;;;;;;48.28;20.95;;;6.60;99.90;;;;;;5035120;28;20049;-54
2021/12/30 01:40:27;;;;;;;52.70;21.17;;;6.60;99.90;;;;;;5035996;28;20029;-54
2021/12/30 01:42:53;;;;;;;50.58;21.05;;;6.70;99.90;;;;;;5036861;28;20029;-53
2021/12/30 01:45:19;;;;;;;53.55;23.80;;;6.70;99.90;;;;;;5036318;28;20573;-56
2021/12/30 01:47:53;;;;;;;61.85;22.38;;;6.80;99.90;;;;;;5035929;28;20037;-56
2021/12/30 01:50:19;;;;;;;51.55;20.70;;;6.80;99.90;;;;;;5037372;28;20030;-53
2021/12/30 01:52:45;;;;;;;52.83;22.58;;;6.80;99.90;;;;;;5039826;28;20037;-53
2021/12/30 01:55:12;;;;;;;51.67;21.90;;;6.80;99.90;;;;;;5040404;28;20036;-52
2021/12/30 01:57:38;;;;;;;55.30;23.17;;;6.90;99.90;;;;;;5038822;28;20223;-55
2021/12/30 02:00:07;;;;;;;65.53;22.17;;;6.90;99.90;;;;;;5019516;28;20139;-53
2021/12/30 02:02:33;;;;;;;54.47;22.33;;;7.00;99.90;;;;;;5036183;28;20039;-56
2021/12/30 02:04:58;;;;;;;63.85;24.33;;;6.90;99.90;;;;;;5039280;28;20026;-54
2021/12/30 02:07:24;;;;;;;52.78;21.08;;;6.90;99.90;;;;;;5039547;28;20387;-53
2021/12/30 02:09:50;;;;;;;50.85;20.90;;;6.90;99.90;;;;;;5037942;28;20398;-53
2021/12/30 02:12:16;;;;;;;51.70;20.42;;;6.90;99.90;;;;;;5038343;28;20545;-55
2021/12/30 02:14:42;;;;;;;54.70;21.35;;;7.00;99.90;;;;;;5039064;28;20342;-55
2021/12/30 02:17:07;;;;;;;56.88;19.58;;;7.00;99.90;;;;;;5039366;28;20052;-54
2021/12/30 02:19:33;;;;;;;58.35;20.23;;;7.00;99.90;;;;;;5037920;28;20037;-52
2021/12/30 02:21:59;;;;;;;58.80;20.25;;;7.00;99.90;;;;;;5038129;28;20491;-52
2021/12/30 02:24:25;;;;;;;51.40;20.77;;;7.00;99.90;;;;;;5039575;28;20049;-54
2021/12/30 02:26:51;;;;;;;50.10;20.60;;;7.10;99.90;;;;;;5067537;23;20047;-59
2021/12/30 02:29:18;;;;;;;48.97;17.52;;;7.10;99.90;;;;;;5058384;28;20093;-58
2021/12/30 02:31:43;;;;;;;48.88;18.35;;;7.10;99.90;;;;;;5059343;28;20033;-59
2021/12/30 02:34:09;;;;;;;43.00;17.25;;;7.10;99.90;;;;;;5058227;28;20048;-59
2021/12/30 02:36:37;;;;;;;42.00;15.43;;;7.10;99.90;;;;;;5058599;28;20100;-60
2021/12/30 02:39:08;;;;;;;42.25;16.98;;;7.10;99.90;;;;;;5060001;28;20025;-60
2021/12/30 02:41:36;;;;;;;38.50;15.75;;;7.10;99.90;;;;;;5039242;28;20028;-59
2021/12/30 02:44:04;;;;;;;51.85;17.90;;;7.00;99.90;;;;;;5059636;28;20502;-60
2021/12/30 02:46:30;;;;;;;41.15;16.58;;;7.00;99.90;;;;;;5058311;28;20044;-59
2021/12/30 02:48:56;;;;;;;35.40;15.80;;;7.00;99.90;;;;;;5058732;28;20029;-60
2021/12/30 02:51:22;;;;;;;38.03;15.00;;;7.00;99.90;;;;;;5058329;28;20040;-58
2021/12/30 02:53:49;;;;;;;40.00;14.32;;;6.90;99.90;;;;;;5061175;28;20368;-58
2021/12/30 02:56:15;;;;;;;29.50;13.85;;;6.90;99.90;;;;;;5059910;28;20566;-57
2021/12/30 02:58:40;;;;;;;43.75;16.17;;;6.90;99.90;;;;;;5058070;28;20135;-58
2021/12/30 03:01:06;;;;;;;32.85;14.18;;;6.90;99.90;;;;;;5057445;28;20060;-58
2021/12/30 03:03:31;;;;;;;42.70;15.07;;;6.80;99.90;;;;;;5039624;28;20441;-56
2021/12/30 03:05:59;;;;;;;44.97;13.98;;;6.80;99.90;;;;;;5058940;28;20078;-58
2021/12/30 03:08:25;;;;;;;39.10;13.65;;;6.80;99.90;;;;;;5057559;28;20408;-58
2021/12/30 03:10:51;;;;;;;33.67;11.95;;;6.80;99.90;;;;;;5059074;28;20303;-57
2021/12/30 03:13:19;;;;;;;30.85;13.25;;;6.80;99.90;;;;;;5058384;28;20021;-58
2021/12/30 03:15:46;;;;;;;31.95;11.43;;;6.80;99.90;;;;;;5057734;28;20017;-56
2021/12/30 03:18:12;;;;;;;37.10;13.00;;;6.80;99.90;;;;;;5057772;28;20021;-58
2021/12/30 03:20:38;;;;;;;28.10;11.27;;;6.70;99.90;;;;;;5057640;28;20024;-58
2021/12/30 03:23:04;;;;;;;28.05;10.48;;;6.70;99.90;;;;;;5041290;28;20027;-57
2021/12/30 03:25:31;;;;;;;29.05;10.68;;;6.70;99.90;;;;;;5058699;28;20499;-57
2021/12/30 03:27:57;;;;;;;29.50;10.05;;;6.70;99.90;;;;;;5058962;28;20490;-58
2021/12/30 03:30:24;;;;;;;24.33;10.00;;;6.80;99.90;;;;;;5057754;28;20043;-56
2021/12/30 03:32:50;;;;;;;33.30;9.80;;;6.80;99.90;;;;;;5058316;28;20020;-58
2021/12/30 03:35:16;;;;;;;24.30;8.93;;;6.80;99.90;;;;;;5058850;28;20055;-55
2021/12/30 03:37:43;;;;;;;28.65;9.68;;;6.80;99.90;;;;;;5058464;28;20056;-58
2021/12/30 03:40:12;;;;;;;36.40;10.18;;;6.80;99.90;;;;;;5059521;28;20024;-58
2021/12/30 03:42:38;;;;;;;28.45;9.45;;;6.80;99.90;;;;;;5057941;28;20107;-57
2021/12/30 03:45:07;;;;;;;22.00;8.55;;;6.80;99.90;;;;;;5057963;28;20093;-58
2021/12/30 03:47:36;;;;;;;25.30;7.85;;;6.80;99.90;;;;;;5039142;28;20112;-58
2021/12/30 03:50:04;;;;;;;30.80;9.70;;;6.80;99.90;;;;;;5058115;28;20036;-57
2021/12/30 03:52:31;;;;;;;29.95;8.70;;;6.70;99.90;;;;;;5057583;28;20037;-57
2021/12/30 03:54:56;;;;;;;23.88;8.88;;;6.70;99.90;;;;;;5057893;28;20021;-57
2021/12/30 03:57:22;;;;;;;25.33;8.13;;;6.70;99.90;;;;;;5058967;28;20036;-58
2021/12/30 03:59:48;;;;;;;28.13;7.40;;;6.80;99.90;;;;;;5056732;28;20101;-56
2021/12/30 04:02:14;;;;;;;29.13;8.23;;;6.80;99.90;;;;;;5056773;28;20506;-55
2021/12/30 04:04:39;;;;;;;35.15;8.45;;;6.70;99.90;;;;;;5057822;28;20027;-57
2021/12/30 04:07:05;;;;;;;25.88;7.50;;;6.70;99.90;;;;;;5057006;28;20039;-57
2021/12/30 04:09:31;;;;;;;30.33;7.80;;;6.60;99.90;;;;;;5057995;28;20024;-56
2021/12/30 04:11:57;;;;;;;29.42;7.93;;;6.70;99.90;;;;;;5057266;28;20094;-56
2021/12/30 04:14:26;;;;;;;23.20;7.65;;;6.70;99.90;;;;;;5056482;28;20067;-55
2021/12/30 04:16:52;;;;;;;17.13;5.65;;;6.70;99.90;;;;;;5040976;28;20044;-55
2021/12/30 04:19:18;;;;;;;23.95;7.07;;;6.60;99.90;;;;;;5057948;28;20029;-56
2021/12/30 04:21:44;;;;;;;20.15;7.20;;;6.60;99.90;;;;;;5056376;28;20040;-56
2021/12/30 04:24:10;;;;;;;19.30;5.07;;;6.60;99.90;;;;;;5040330;28;20025;-58
2021/12/30 04:26:36;;;;;;;21.77;6.95;;;6.50;99.90;;;;;;5057202;28;20203;-57
2021/12/30 04:29:02;;;;;;;21.70;6.13;;;6.50;99.90;;;;;;5039038;28;20043;-56
2021/12/30 04:31:27;;;;;;;27.45;6.18;;;6.40;99.90;;;;;;5057964;28;20494;-58
2021/12/30 04:33:53;;;;;;;17.25;5.78;;;6.40;99.90;;;;;;5058764;28;20056;-57
2021/12/30 04:36:19;;;;;;;15.27;5.45;;;6.30;99.90;;;;;;5057543;28;20024;-56
2021/12/30 04:38:44;;;;;;;17.00;6.32;;;6.30;99.90;;;;;;5057872;28;20029;-57
2021/12/30 04:41:10;;;;;;;19.55;6.38;;;6.30;99.90;;;;;;5056453;28;20032;-57
2021/12/30 04:43:35;;;;;;;17.92;4.93;;;6.30;99.90;;;;;;5057481;28;20038;-56
2021/12/30 04:46:02;;;;;;;15.77;5.07;;;6.20;99.90;;;;;;5055801;28;20536;-56
2021/12/30 04:48:29;;;;;;;17.50;5.10;;;6.10;99.90;;;;;;5056516;28;20025;-57
2021/12/30 04:50:54;;;;;;;19.80;5.55;;;6.10;99.90;;;;;;5058049;28;20029;-58
2021/12/30 04:53:20;;;;;;;16.40;4.75;;;6.00;99.90;;;;;;5057001;28;20033;-57
2021/12/30 04:55:47;;;;;;;17.52;5.30;;;6.00;99.90;;;;;;5057494;28;20483;-56
2021/12/30 04:58:14;;;;;;;19.60;4.28;;;5.90;99.90;;;;;;5056217;28;20033;-57
2021/12/30 05:00:40;;;;;;;20.33;5.43;;;5.90;99.90;;;;;;5058001;28;20411;-56
2021/12/30 05:03:10;;;;;;;15.40;5.60;;;5.90;99.90;;;;;;5058694;28;20025;-57
2021/12/30 05:05:56;;;;;;;14.73;4.05;;;5.90;99.90;;;;;;5055820;28;20043;-58
2021/12/30 05:08:24;;;;;;;13.87;5.57;;;5.90;99.90;;;;;;5057686;28;20040;-56
2021/12/30 05:10:50;;;;;;;17.35;5.18;;;5.90;99.90;;;;;;5055290;28;20776;-56
2021/12/30 05:13:17;;;;;;;17.77;5.00;;;5.80;99.90;;;;;;5056669;28;20041;-57
2021/12/30 05:15:43;;;;;;;12.38;4.35;;;5.70;99.90;;;;;;5057679;28;20075;-58
2021/12/30 05:18:10;;;;;;;14.38;5.03;;;5.70;99.90;;;;;;5038626;28;20402;-58
2021/12/30 05:20:37;;;;;;;15.77;4.90;;;5.70;99.90;;;;;;5056190;28;20032;-57
2021/12/30 05:23:04;;;;;;;20.55;5.43;;;5.70;99.90;;;;;;5057602;28;20028;-57
2021/12/30 05:25:30;;;;;;;15.68;5.95;;;5.70;99.90;;;;;;5058766;28;20037;-57
2021/12/30 05:27:56;;;;;;;23.27;4.78;;;5.80;99.90;;;;;;5060841;28;20036;-58
2021/12/30 05:30:23;;;;;;;12.93;5.50;;;5.80;99.90;;;;;;5061379;28;20526;-58
2021/12/30 05:32:51;;;;;;;17.90;5.88;;;5.80;99.90;;;;;;5060534;28;20032;-58
2021/12/30 05:35:17;;;;;;;17.30;5.53;;;5.90;99.90;;;;;;5060481;28;20036;-57
2021/12/30 05:37:43;;;;;;;23.52;6.32;;;6.00;99.90;;;;;;5041977;28;20602;-57
2021/12/30 05:40:12;;;;;;;16.15;5.90;;;6.00;99.90;;;;;;5060682;28;20453;-58
2021/12/30 05:42:38;;;;;;;19.83;6.18;;;6.00;99.90;;;;;;5058794;28;20039;-58
2021/12/30 05:45:05;;;;;;;20.20;7.90;;;6.10;99.90;;;;;;5061832;28;20037;-58
2021/12/30 05:47:31;;;;;;;31.27;7.53;;;6.10;99.90;;;;;;5060246;28;20032;-58
2021/12/30 05:49:56;;;;;;;21.45;7.50;;;6.10;99.90;;;;;;5042824;28;20032;-56
2021/12/30 05:52:22;;;;;;;24.58;7.22;;;6.10;99.90;;;;;;5060302;28;20037;-58
2021/12/30 05:54:48;;;;;;;19.00;6.93;;;6.10;99.90;;;;;;5060797;28;20035;-56
2021/12/30 05:57:13;;;;;;;31.13;8.55;;;6.20;99.90;;;;;;5060704;28;20029;-57
2021/12/30 05:59:39;;;;;;;20.58;8.35;;;6.20;99.90;;;;;;5060997;28;20094;-57
2021/12/30 06:02:05;;;;;;;28.65;7.95;;;6.30;99.90;;;;;;5060232;28;20052;-57
2021/12/30 06:04:31;;;;;;;35.63;8.90;;;6.30;99.90;;;;;;5061074;28;20466;-55
2021/12/30 06:06:56;;;;;;;33.13;8.40;;;6.20;99.90;;;;;;5061005;28;20043;-57
2021/12/30 06:09:25;;;;;;;31.08;9.40;;;6.20;99.90;;;;;;5040842;28;20067;-58
2021/12/30 06:11:51;;;;;;;26.85;10.38;;;6.20;99.90;;;;;;5059368;28;20677;-58
2021/12/30 06:14:16;;;;;;;23.35;9.65;;;6.30;99.90;;;;;;5060770;28;20025;-56
2021/12/30 06:16:42;;;;;;;49.80;11.50;;;6.30;99.90;;;;;;5060376;28;20032;-58
2021/12/30 06:19:08;;;;;;;30.95;10.15;;;6.30;99.90;;;;;;5060663;28;20550;-58
2021/12/30 06:21:33;;;;;;;33.15;9.93;;;6.30;99.90;;;;;;5060291;28;20395;-58
2021/12/30 06:23:59;;;;;;;28.38;11.40;;;6.40;99.90;;;;;;5061296;28;20027;-58
2021/12/30 06:26:24;;;;;;;33.40;11.15;;;6.40;99.90;;;;;;5059454;28;20048;-58
2021/12/30 06:28:50;;;;;;;38.38;12.00;;;6.40;99.90;;;;;;5060688;28;20064;-57
2021/12/30 06:31:16;;;;;;;41.35;11.23;;;6.40;99.90;;;;;;5059606;28;20430;-58
2021/12/30 06:33:42;;;;;;;40.55;10.38;;;6.40;99.90;;;;;;5061217;28;20510;-58
2021/12/30 06:36:08;;;;;;;31.33;10.23;;;6.40;99.90;;;;;;5059752;28;20127;-58
2021/12/30 06:38:34;;;;;;;36.17;11.93;;;6.40;99.90;;;;;;5059751;28;20024;-58
2021/12/30 06:41:00;;;;;;;34.20;10.50;;;6.50;99.90;;;;;;5041380;28;20028;-59
2021/12/30 06:43:26;;;;;;;39.22;12.52;;;6.50;99.90;;;;;;5059755;28;20503;-58
2021/12/30 06:45:52;;;;;;;48.38;12.32;;;6.50;99.90;;;;;;5058417;28;20552;-58
2021/12/30 06:48:17;;;;;;;40.92;13.20;;;6.60;99.90;;;;;;5059112;28;20020;-58
2021/12/30 06:50:51;;;;;;;40.33;10.57;;;6.60;99.90;;;;;;5058177;28;20029;-55
2021/12/30 06:53:19;;;;;;;34.90;12.18;;;6.60;99.90;;;;;;5041465;28;20016;-56
2021/12/30 06:55:46;;;;;;;44.72;11.95;;;6.60;99.90;;;;;;5058917;28;20107;-59
2021/12/30 06:58:11;;;;;;;33.30;11.45;;;6.60;99.90;;;;;;5058926;28;20020;-57
2021/12/30 07:00:37;;;;;;;57.33;13.20;;;6.60;99.90;;;;;;5057508;28;20115;-59
2021/12/30 07:03:02;;;;;;;41.63;11.40;;;6.70;99.90;;;;;;5055811;28;20020;-58
2021/12/30 07:05:28;;;;;;;39.95;11.68;;;6.70;99.90;;;;;;5059783;28;20029;-58
2021/12/30 07:07:54;;;;;;;42.50;12.02;;;6.70;99.90;;;;;;5059086;28;20060;-57
2021/12/30 07:10:19;;;;;;;43.20;12.27;;;6.70;99.90;;;;;;5041649;28;20426;-56
2021/12/30 07:12:45;;;;;;;31.80;11.80;;;6.70;99.90;;;;;;5058918;28;20020;-58
2021/12/30 07:15:11;;;;;;;42.78;12.05;;;6.80;99.90;;;;;;5059948;28;20081;-58
2021/12/30 07:17:36;;;;;;;43.33;11.15;;;6.80;99.90;;;;;;5057921;28;20082;-57
2021/12/30 07:20:04;;;;;;;46.38;12.98;;;6.80;99.90;;;;;;5058604;28;20020;-57
2021/12/30 07:22:29;;;;;;;51.63;13.38;;;6.80;99.90;;;;;;5059378;28;20036;-58
2021/12/30 07:24:56;;;;;;;47.08;12.32;;;6.80;99.90;;;;;;5056950;28;20506;-57
2021/12/30 07:27:22;;;;;;;37.50;12.32;;;6.80;99.90;;;;;;5057544;28;20033;-57
2021/12/30 07:29:47;;;;;;;41.88;11.55;;;6.80;99.90;;;;;;5039435;28;20028;-59
2021/12/30 07:32:13;;;;;;;38.47;11.50;;;6.80;99.90;;;;;;5057550;28;20052;-58
2021/12/30 07:34:39;;;;;;;32.35;11.32;;;6.80;99.90;;;;;;5057408;28;20055;-57
2021/12/30 07:37:04;;;;;;;39.10;11.88;;;6.80;99.90;;;;;;5035624;28;20028;-56
2021/12/30 07:39:30;;;;;;;35.20;11.45;;;6.80;99.90;;;;;;5057219;28;20714;-58
2021/12/30 07:41:55;;;;;;;46.10;12.30;;;6.90;99.90;;;;;;5058850;28;20032;-58
2021/12/30 07:44:21;;;;;;;45.60;12.43;;;6.90;99.90;;;;;;5058913;28;20540;-57
2021/12/30 07:46:47;;;;;;;44.70;12.25;;;6.90;99.90;;;;;;5060299;28;20024;-57
2021/12/30 07:49:12;;;;;;;43.05;13.18;;;6.90;99.90;;;;;;5057346;28;20506;-59
2021/12/30 07:51:38;;;;;;;53.90;11.82;;;6.90;99.90;;;;;;5058821;28;20029;-59
2021/12/30 07:54:04;;;;;;;42.88;13.05;;;6.90;99.90;;;;;;5059210;28;20052;-59
2021/12/30 07:56:29;;;;;;;53.28;13.45;;;6.90;99.90;;;;;;5040039;28;20035;-58
2021/12/30 07:58:55;;;;;;;53.88;13.27;;;6.90;99.90;;;;;;5040718;28;20166;-58
2021/12/30 08:01:21;;;;;;;46.08;12.27;;;6.90;99.90;;;;;;5056573;28;20028;-58
2021/12/30 08:03:46;;;;;;;46.35;14.32;;;7.00;99.90;;;;;;5054969;28;20130;-58
2021/12/30 08:06:12;;;;;;;59.42;13.57;;;7.00;99.90;;;;;;5058018;28;20108;-58
2021/12/30 08:08:39;;;;;;;41.40;11.93;;;7.00;99.90;;;;;;5057824;28;20028;-56
2021/12/30 08:11:05;;;;;;;53.90;12.95;;;7.10;99.90;;;;;;5057306;28;20021;-59
2021/12/30 08:13:30;;;;;;;37.58;12.32;;;7.10;99.90;;;;;;5057584;28;20031;-58
2021/12/30 08:15:56;;;;;;;48.90;13.38;;;7.10;99.90;;;;;;5057593;28;20036;-57
2021/12/30 08:18:21;;;;;;;52.30;13.30;;;7.10;99.90;;;;;;5039989;28;20033;-58
2021/12/30 08:20:47;;;;;;;38.40;14.60;;;7.10;99.90;;;;;;5039508;28;20025;-59
2021/12/30 08:23:13;;;;;;;42.30;14.05;;;7.20;99.90;;;;;;5057645;28;20036;-59
2021/12/30 08:25:39;;;;;;;59.63;14.35;;;7.20;99.90;;;;;;5058240;28;20109;-59
2021/12/30 08:28:04;;;;;;;48.25;13.38;;;7.30;99.90;;;;;;5057186;28;20061;-58
2021/12/30 08:30:30;;;;;;;52.13;13.27;;;7.30;99.90;;;;;;5058718;28;20099;-58
2021/12/30 08:35:29;;;;;;;53.78;14.38;;;7.30;99.90;;;;;;5020094;28;20069;-52
2021/12/30 08:37:55;;;;;;;55.38;14.10;;;7.40;99.90;;;;;;5027447;28;20083;-53
2021/12/30 08:40:21;;;;;;;47.65;13.75;;;7.40;99.90;;;;;;5026885;28;20094;-48
2021/12/30 08:42:47;;;;;;;50.60;13.90;;;7.40;99.90;;;;;;5042842;28;20115;-47
2021/12/30 08:45:13;;;;;;;49.97;13.77;;;7.40;99.90;;;;;;5047380;28;20079;-50
2021/12/30 08:47:40;;;;;;;50.20;12.00;;;7.50;99.90;;;;;;5046394;28;20029;-52
2021/12/30 08:50:10;;;;;;;46.38;14.38;;;7.50;99.90;;;;;;5047025;28;20032;-51
2021/12/30 08:52:36;;;;;;;46.30;13.10;;;7.50;99.90;;;;;;5046171;28;20021;-56
2021/12/30 08:55:06;;;;;;;48.58;14.32;;;7.60;99.90;;;;;;5047654;28;20025;-50
2021/12/30 08:57:33;;;;;;;40.13;13.82;;;7.70;99.90;;;;;;5045908;28;20075;-55
2021/12/30 09:00:00;;;;;;;44.97;14.57;;;7.70;99.90;;;;;;5048450;28;20024;-49
2021/12/30 09:02:26;;;;;;;50.90;14.45;;;7.70;99.90;;;;;;5049722;28;20033;-52
2021/12/30 09:04:52;;;;;;;41.70;14.35;;;7.70;99.90;;;;;;5051415;28;20024;-49
2021/12/30 09:07:18;;;;;;;51.92;14.40;;;7.70;99.90;;;;;;5050360;28;20027;-56
2021/12/30 09:09:45;;;;;;;38.83;12.95;;;7.70;99.90;;;;;;5046871;28;20025;-55
2021/12/30 09:12:11;;;;;;;47.10;14.35;;;7.70;99.90;;;;;;5049699;28;20475;-49
2021/12/30 09:14:37;;;;;;;51.38;15.20;;;7.70;99.90;;;;;;5048070;28;20039;-50
2021/12/30 09:17:04;;;;;;;54.50;14.98;;;7.80;99.90;;;;;;5049547;28;20067;-48
2021/12/30 09:19:30;;;;;;;52.08;14.25;;;7.80;99.90;;;;;;5047272;28;20482;-48
2021/12/30 09:21:56;;;;;;;53.35;16.95;;;7.80;99.90;;;;;;5048752;28;20048;-48
2021/12/30 09:24:23;;;;;;;54.13;14.05;;;7.80;99.90;;;;;;5048243;28;20074;-54
2021/12/30 09:26:49;;;;;;;56.28;15.73;;;7.80;99.90;;;;;;5048780;28;20029;-49
2021/12/30 09:29:14;;;;;;;45.13;13.88;;;7.80;99.90;;;;;;5050116;28;20028;-55
2021/12/30 09:31:42;;;;;;;58.63;16.73;;;7.80;99.90;;;;;;5049564;28;20483;-48
2021/12/30 09:34:09;;;;;;;61.25;16.20;;;7.80;99.90;;;;;;5046350;28;20037;-50
2021/12/30 09:36:36;;;;;;;58.28;17.27;;;7.90;99.90;;;;;;5049062;28;20025;-54
2021/12/30 09:39:04;;;;;;;62.90;17.02;;;7.90;99.90;;;;;;5045476;28;20021;-47
2021/12/30 09:41:30;;;;;;;46.08;15.32;;;7.90;99.90;;;;;;5040369;28;20025;-50
2021/12/30 09:43:56;;;;;;;51.25;16.65;;;7.90;99.90;;;;;;5045331;28;20017;-49
2021/12/30 09:46:23;;;;;;;50.55;18.48;;;7.80;99.90;;;;;;5046127;28;20028;-51
2021/12/30 09:48:49;;;;;;;48.35;17.25;;;7.90;99.90;;;;;;5044656;28;20029;-56
2021/12/30 09:51:15;;;;;;;50.03;18.80;;;7.90;99.90;;;;;;5035066;28;20026;-56
2021/12/30 09:53:40;;;;;;;56.40;19.27;;;7.90;99.90;;;;;;5042937;28;20023;-51
2021/12/30 09:56:06;;;;;;;54.85;19.77;;;7.90;99.90;;;;;;5041341;28;20021;-49
2021/12/30 09:58:32;;;;;;;53.28;18.63;;;8.00;99.90;;;;;;5041007;28;20056;-55
2021/12/30 10:00:59;;;;;;;45.05;17.92;;;8.00;99.90;;;;;;5042718;28;20184;-57
2021/12/30 10:03:27;;;;;;;55.65;18.83;;;8.00;99.90;;;;;;5041214;28;20025;-49
2021/12/30 10:05:53;;;;;;;45.28;17.67;;;8.10;99.90;;;;;;5044813;28;20132;-49
2021/12/30 10:08:26;;;;;;;51.38;19.92;;;8.10;99.90;;;;;;5042941;28;20038;-49
2021/12/30 10:10:57;;;;;;;44.22;18.50;;;8.10;99.90;;;;;;5042060;28;20029;-55
2021/12/30 10:13:24;;;;;;;48.65;18.00;;;8.10;99.90;;;;;;5042733;28;20025;-49
2021/12/30 10:15:57;;;;;;;38.80;17.80;;;8.20;99.90;;;;;;5044029;28;20505;-48
2021/12/30 10:18:24;;;;;;;51.35;18.50;;;8.20;99.90;;;;;;5041663;28;20034;-48
2021/12/30 10:20:51;;;;;;;47.50;18.50;;;8.20;99.90;;;;;;5042330;28;20022;-55
2021/12/30 10:23:22;;;;;;;49.28;17.98;;;8.20;99.90;;;;;;5044941;28;20031;-52
2021/12/30 10:25:50;;;;;;;51.85;20.67;;;8.30;99.90;;;;;;5042689;28;20112;-56
2021/12/30 10:28:36;;;;;;;44.60;18.42;;;8.30;99.90;;;;;;5045367;28;20025;-56
2021/12/30 10:31:27;;;;;;;50.45;19.70;;;8.30;99.90;;;;;;5040440;28;20071;-49
2021/12/30 10:34:04;;;;;;;54.20;18.35;;;8.40;99.90;;;;;;5045046;28;20123;-55
2021/12/30 10:36:42;;;;;;;47.75;18.35;;;8.40;99.90;;;;;;5031680;28;20040;-49
2021/12/30 10:39:29;;;;;;;48.25;17.23;;;8.40;99.90;;;;;;5041563;28;20578;-56
2021/12/30 10:42:21;;;;;;;45.22;17.63;;;8.50;99.90;;;;;;5044493;28;20040;-53
2021/12/30 10:45:13;;;;;;;46.67;16.65;;;8.50;99.90;;;;;;5043699;28;20132;-52
2021/12/30 10:47:59;;;;;;;42.90;15.43;;;8.50;99.90;;;;;;5042869;28;20131;-56
2021/12/30 10:50:25;;;;;;;40.50;16.70;;;8.60;99.90;;;;;;5042996;28;20306;-47
2021/12/30 10:52:53;;;;;;;34.10;16.17;;;8.60;99.90;;;;;;5030514;28;20025;-54
2021/12/30 10:55:21;;;;;;;38.10;16.60;;;8.60;99.90;;;;;;5045562;28;20114;-56
2021/12/30 10:57:46;;;;;;;46.72;16.77;;;8.60;99.90;;;;;;5044881;28;20029;-53
2021/12/30 11:00:28;;;;;;;34.58;14.68;;;8.70;99.90;;;;;;5044966;28;20025;-51
2021/12/30 11:02:54;;;;;;;41.05;15.75;;;8.70;99.90;;;;;;5045094;28;20486;-55
2021/12/30 11:05:19;;;;;;;37.05;14.18;;;8.70;99.90;;;;;;5040551;28;20108;-51
2021/12/30 11:07:55;;;;;;;33.85;12.00;;;8.80;99.90;;;;;;5040836;28;20108;-47
2021/12/30 11:10:37;;;;;;;32.47;12.05;;;8.80;99.90;;;;;;5039966;28;20036;-51
2021/12/30 11:13:12;;;;;;;31.05;12.57;;;8.90;99.90;;;;;;5026290;28;20064;-51
2021/12/30 11:15:38;;;;;;;26.10;10.88;;;8.90;99.90;;;;;;5038917;28;20242;-54
2021/12/30 11:18:14;;;;;;;20.20;9.52;;;8.90;99.90;;;;;;5041104;28;20260;-52
2021/12/30 11:20:47;;;;;;;22.98;10.57;;;9.00;99.90;;;;;;5040934;28;20029;-54
2021/12/30 11:23:15;;;;;;;21.60;9.45;;;9.00;99.90;;;;;;5038121;28;20045;-54
2021/12/30 11:25:41;;;;;;;20.65;8.43;;;9.00;99.90;;;;;;5036673;28;20053;-52
2021/12/30 11:28:07;;;;;;;16.83;8.40;;;9.10;99.90;;;;;;5045468;28;20059;-51
2021/12/30 11:30:33;;;;;;;15.38;7.68;;;9.20;99.90;;;;;;5046709;28;20037;-47
2021/12/30 11:32:59;;;;;;;14.70;7.82;;;9.20;99.90;;;;;;5044668;28;20032;-51
2021/12/30 11:35:26;;;;;;;14.80;7.63;;;9.20;99.90;;;;;;5045720;28;20029;-56
2021/12/30 11:37:54;;;;;;;10.90;6.70;;;9.20;99.90;;;;;;5041671;28;20028;-49
2021/12/30 11:40:23;;;;;;;18.73;6.72;;;9.30;99.90;;;;;;5046760;28;20093;-52
2021/12/30 11:43:12;;;;;;;13.93;7.20;;;9.30;99.90;;;;;;5045220;28;20082;-52
2021/12/30 11:45:42;;;;;;;10.82;6.07;;;9.30;99.90;;;;;;5028307;28;20146;-47
2021/12/30 11:48:27;;;;;;;15.55;7.10;;;9.40;99.90;;;;;;5044251;28;20117;-48
2021/12/30 11:51:07;;;;;;;12.65;6.50;;;9.40;99.90;;;;;;5042902;28;20021;-50
2021/12/30 11:53:33;;;;;;;12.82;6.85;;;9.40;99.90;;;;;;5042021;28;20022;-55
2021/12/30 11:56:04;;;;;;;10.43;6.32;;;9.50;99.90;;;;;;5044622;28;20021;-47
2021/12/30 11:58:42;;;;;;;10.40;6.82;;;9.50;99.90;;;;;;5042868;28;20102;-50
2021/12/30 12:01:11;;;;;;;12.63;6.43;;;9.60;99.90;;;;;;5042619;28;20028;-50
2021/12/30 12:03:36;;;;;;;10.77;6.72;;;9.60;99.90;;;;;;5044635;28;20032;-51
2021/12/30 12:06:04;;;;;;;10.20;6.05;;;9.60;99.90;;;;;;5046343;28;20033;-53
2021/12/30 12:08:41;;;;;;;14.73;6.47;;;9.70;99.90;;;;;;5043429;28;20020;-49
2021/12/30 12:11:18;;;;;;;13.48;6.65;;;9.70;99.90;;;;;;5042502;28;20024;-53
2021/12/30 12:13:46;;;;;;;12.32;6.05;;;9.70;99.90;;;;;;5043099;28;20036;-50
2021/12/30 12:16:16;;;;;;;10.20;6.47;;;9.70;99.90;;;;;;5044253;28;20487;-53
2021/12/30 12:19:05;;;;;;;11.55;6.32;;;9.80;99.90;;;;;;5045337;28;20108;-47
2021/12/30 12:21:51;;;;;;;10.30;5.55;;;9.80;99.90;;;;;;5035572;28;20501;-50
2021/12/30 12:24:25;;;;;;;10.10;5.68;;;9.90;99.90;;;;;;5026893;28;20033;-51
2021/12/30 12:27:03;;;;;;;11.70;6.00;;;9.90;99.90;;;;;;5043439;28;20031;-52
2021/12/30 12:29:51;;;;;;;9.38;5.07;;;10.00;99.90;;;;;;5035798;28;20044;-55
2021/12/30 12:32:30;;;;;;;12.35;5.75;;;10.00;99.90;;;;;;5034118;28;20025;-52
2021/12/30 12:35:03;;;;;;;9.50;5.45;;;10.00;99.90;;;;;;4998763;28;1073095;-52
2021/12/30 12:37:39;;;;;;;7.40;4.85;;;10.00;99.90;;;;;;5023763;28;20030;-57
2021/12/30 12:40:20;;;;;;;6.68;4.60;;;10.10;99.90;;;;;;5040977;28;20096;-53
2021/12/30 12:42:50;;;;;;;7.78;3.97;;;10.10;99.90;;;;;;5037116;28;20083;-52
2021/12/30 12:45:28;;;;;;;10.05;6.97;;;10.20;99.90;;;;;;5036184;28;20025;-53
2021/12/30 12:48:16;;;;;;;7.80;4.22;;;10.20;99.90;;;;;;5034173;28;20033;-52